Time;durP1;ratioP1;P1;durP2;ratioP2;P2;SDS_P1;SDS_P2;PMS_P1;PMS_P2;Temp;Humidity;BMP_temperature;BMP_pressure;BME280_temperature;BME280_humidity;BME280_pressure;Samples;Min_cycle;Max_cycle;Signal;HPM_P1;HPM_P2
2021/12/02 00:02:27;;;;;;;2.13;1.70;;;22.40;41.50;;;;;;6134783;28;80656;-74
2021/12/02 00:05:27;;;;;;;1.55;1.30;;;22.30;41.40;;;;;;6128807;28;81561;-74
2021/12/02 00:08:29;;;;;;;2.50;1.58;;;22.30;41.50;;;;;;6133308;28;80578;-74
2021/12/02 00:11:30;;;;;;;1.75;1.40;;;22.30;41.20;;;;;;6121418;28;82126;-73
2021/12/02 00:14:40;;;;;;;2.25;1.58;;;22.30;41.20;;;;;;6128975;28;82468;-73
2021/12/02 00:17:41;;;;;;;2.67;1.70;;;22.30;41.20;;;;;;6126063;28;80464;-73
2021/12/02 00:24:02;;;;;;;1.40;1.30;;;22.30;41.20;;;;;;6134951;28;86433;-71
2021/12/02 00:27:02;;;;;;;1.40;1.30;;;22.30;41.10;;;;;;6135722;28;80422;-71
2021/12/02 00:30:03;;;;;;;1.73;1.30;;;22.30;41.80;;;;;;6137094;28;81037;-71
2021/12/02 00:33:03;;;;;;;1.33;1.20;;;22.30;41.10;;;;;;6155004;28;83116;-71
2021/12/02 00:36:04;;;;;;;1.58;1.20;;;22.30;41.10;;;;;;6134049;28;81045;-73
2021/12/02 00:39:04;;;;;;;2.42;1.45;;;22.30;41.80;;;;;;6134642;28;81574;-73
2021/12/02 00:42:05;;;;;;;1.25;1.15;;;22.30;42.20;;;;;;6132211;28;80765;-73
2021/12/02 00:45:06;;;;;;;1.38;1.27;;;22.30;42.30;;;;;;6134643;28;81025;-73
2021/12/02 00:48:06;;;;;;;1.10;1.00;;;22.30;41.50;;;;;;6137913;28;81763;-73
2021/12/02 00:51:07;;;;;;;1.30;1.20;;;22.30;42.10;;;;;;6135259;28;80539;-73
2021/12/02 00:54:07;;;;;;;1.40;1.30;;;22.30;41.70;;;;;;6136119;28;80923;-74
2021/12/02 00:57:08;;;;;;;1.52;1.10;;;22.20;41.20;;;;;;6130679;28;81712;-75
2021/12/02 01:00:08;;;;;;;3.25;1.10;;;22.20;41.30;;;;;;6136680;28;80408;-75
2021/12/02 01:03:09;;;;;;;1.30;1.00;;;22.20;41.70;;;;;;6138943;28;82375;-75
2021/12/02 01:06:09;;;;;;;1.17;1.08;;;22.20;42.10;;;;;;6127463;28;80506;-75
2021/12/02 01:09:10;;;;;;;1.30;1.20;;;22.20;42.10;;;;;;6135001;28;80183;-75
2021/12/02 01:12:10;;;;;;;1.00;1.00;;;22.20;41.50;;;;;;6117529;28;81516;-75
2021/12/02 01:15:11;;;;;;;1.83;1.40;;;22.20;41.70;;;;;;6133201;28;81629;-74
2021/12/02 01:18:11;;;;;;;1.90;1.05;;;22.20;42.00;;;;;;6127066;28;80983;-73
2021/12/02 01:21:12;;;;;;;1.40;1.15;;;22.20;41.80;;;;;;6141015;28;80645;-73
2021/12/02 01:24:12;;;;;;;1.40;1.00;;;22.20;42.00;;;;;;6148711;28;80029;-73
2021/12/02 01:27:13;;;;;;;1.20;1.10;;;22.20;41.80;;;;;;6150167;28;80335;-73
2021/12/02 01:30:13;;;;;;;1.63;1.17;;;22.20;41.50;;;;;;6157862;28;82239;-73
2021/12/02 01:33:14;;;;;;;1.60;1.13;;;22.20;41.70;;;;;;6149352;28;79985;-74
2021/12/02 01:36:14;;;;;;;1.50;1.30;;;22.20;41.70;;;;;;6142256;28;80003;-73
2021/12/02 01:39:15;;;;;;;1.08;1.00;;;22.20;41.40;;;;;;6138003;28;80633;-72
2021/12/02 01:42:18;;;;;;;1.20;1.10;;;22.20;41.20;;;;;;6140148;28;80401;-72
2021/12/02 01:45:20;;;;;;;1.55;1.30;;;22.20;41.40;;;;;;6133590;28;82021;-71
2021/12/02 01:48:20;;;;;;;1.70;1.38;;;22.10;41.30;;;;;;6139699;28;80351;-71
2021/12/02 01:51:21;;;;;;;2.00;1.38;;;22.20;41.40;;;;;;6137290;28;80411;-72
2021/12/02 01:54:21;;;;;;;1.30;1.20;;;22.20;41.50;;;;;;6131579;28;80288;-71
2021/12/02 01:57:22;;;;;;;1.33;1.05;;;22.20;41.90;;;;;;6135535;28;80937;-71
2021/12/02 02:00:22;;;;;;;1.42;1.30;;;22.10;41.40;;;;;;6139563;28;81895;-72
2021/12/02 02:03:23;;;;;;;1.33;1.05;;;22.20;42.00;;;;;;6131985;28;80790;-71
2021/12/02 02:06:23;;;;;;;1.35;1.20;;;22.20;41.70;;;;;;6132430;28;80799;-72
2021/12/02 02:09:24;;;;;;;2.35;1.30;;;22.10;41.60;;;;;;6127615;28;81481;-72
2021/12/02 02:12:25;;;;;;;1.17;1.05;;;22.20;41.90;;;;;;6135715;28;81539;-71
2021/12/02 02:15:25;;;;;;;1.27;1.17;;;22.20;41.70;;;;;;6136596;28;81989;-72
2021/12/02 02:18:26;;;;;;;1.30;1.20;;;22.20;42.00;;;;;;6137315;28;80615;-72
2021/12/02 02:21:27;;;;;;;1.20;1.10;;;22.20;41.80;;;;;;6139098;28;84653;-72
2021/12/02 02:24:29;;;;;;;1.08;1.00;;;22.10;42.00;;;;;;6131489;28;81529;-70
2021/12/02 02:27:30;;;;;;;1.85;1.23;;;22.10;42.00;;;;;;6130003;28;81766;-71
2021/12/02 02:30:30;;;;;;;1.40;1.30;;;22.10;41.60;;;;;;6135084;28;81940;-70
2021/12/02 02:33:36;;;;;;;1.20;1.08;;;22.10;42.00;;;;;;6128816;28;80352;-70
2021/12/02 02:36:38;;;;;;;1.15;1.00;;;22.10;42.00;;;;;;6137904;28;80150;-70
2021/12/02 02:39:38;;;;;;;0.93;0.93;;;22.20;42.30;;;;;;6137611;28;80464;-71
2021/12/02 02:42:39;;;;;;;1.45;1.20;;;22.10;41.90;;;;;;6135827;28;80341;-70
2021/12/02 02:45:39;;;;;;;1.42;1.08;;;22.20;41.90;;;;;;6137910;28;80820;-71
2021/12/02 02:48:40;;;;;;;0.98;0.98;;;22.20;41.90;;;;;;6137862;28;80782;-72
2021/12/02 02:51:41;;;;;;;1.67;1.20;;;22.20;42.00;;;;;;6137082;28;80516;-73
2021/12/02 02:54:41;;;;;;;1.98;1.13;;;22.10;42.30;;;;;;6135659;28;85053;-75
2021/12/02 02:58:15;;;;;;;1.20;1.10;;;22.10;42.00;;;;;;6132688;28;83941;-73
2021/12/02 03:04:32;;;;;;;1.83;1.20;;;22.10;42.00;;;;;;6129841;28;81427;-72
2021/12/02 03:07:42;;;;;;;1.30;1.20;;;22.20;42.50;;;;;;6134179;28;80717;-72
2021/12/02 03:10:45;;;;;;;1.13;1.02;;;22.20;42.20;;;;;;6133569;28;80774;-72
2021/12/02 03:13:48;;;;;;;1.10;1.00;;;22.10;42.50;;;;;;6125056;28;80368;-72
2021/12/02 03:16:49;;;;;;;1.65;1.27;;;22.20;42.40;;;;;;6136900;28;80326;-72
2021/12/02 03:19:49;;;;;;;1.15;1.05;;;22.10;42.00;;;;;;6136593;28;80258;-71
2021/12/02 03:22:50;;;;;;;1.30;1.20;;;22.20;42.00;;;;;;6131102;28;81839;-71
2021/12/02 03:25:50;;;;;;;1.02;1.00;;;22.10;42.00;;;;;;6133840;28;83046;-71
2021/12/02 03:28:51;;;;;;;1.42;1.10;;;22.10;42.00;;;;;;6127416;28;81555;-71
2021/12/02 03:31:51;;;;;;;1.02;0.98;;;22.10;41.70;;;;;;6135967;28;81112;-72
2021/12/02 03:34:52;;;;;;;1.25;1.15;;;22.10;41.60;;;;;;6138771;28;80782;-72
2021/12/02 03:37:53;;;;;;;1.60;1.40;;;22.10;41.60;;;;;;6136927;28;80658;-72
2021/12/02 03:40:53;;;;;;;1.40;1.08;;;22.10;41.60;;;;;;6134531;28;81901;-72
2021/12/02 03:43:54;;;;;;;1.42;1.15;;;22.10;42.00;;;;;;6141137;28;81176;-72
2021/12/02 03:46:54;;;;;;;1.20;1.00;;;22.10;42.20;;;;;;6139961;28;80882;-71
2021/12/02 03:49:55;;;;;;;1.33;1.10;;;22.10;42.00;;;;;;6123222;28;80765;-72
2021/12/02 03:52:55;;;;;;;1.85;1.30;;;22.20;42.40;;;;;;6124924;28;82602;-72
2021/12/02 03:55:56;;;;;;;1.23;1.15;;;22.20;42.00;;;;;;6118967;28;80457;-72
2021/12/02 03:58:56;;;;;;;0.88;0.85;;;22.20;42.00;;;;;;6133370;28;80850;-72
2021/12/02 04:01:58;;;;;;;1.17;1.08;;;22.20;42.50;;;;;;6129491;28;81422;-73
2021/12/02 04:04:59;;;;;;;1.20;1.10;;;22.20;42.80;;;;;;6134641;28;80247;-73
2021/12/02 04:08:00;;;;;;;1.25;1.00;;;22.20;42.60;;;;;;6135516;28;82127;-73
2021/12/02 04:17:29;;;;;;;1.00;1.00;;;22.10;42.30;;;;;;6133307;28;80653;-73
2021/12/02 04:20:30;;;;;;;0.93;0.93;;;22.10;42.60;;;;;;6134829;28;83368;-72
2021/12/02 04:23:30;;;;;;;1.13;1.02;;;22.10;42.20;;;;;;6144906;28;80484;-73
2021/12/02 04:26:31;;;;;;;2.03;1.00;;;22.10;42.90;;;;;;6136300;28;82104;-73
2021/12/02 04:29:31;;;;;;;1.00;1.00;;;22.10;43.30;;;;;;6136174;28;83308;-72
2021/12/02 04:32:32;;;;;;;0.80;0.80;;;22.20;43.40;;;;;;6134343;28;80505;-71
2021/12/02 04:35:32;;;;;;;2.72;1.17;;;22.10;42.90;;;;;;6135846;28;81427;-72
2021/12/02 04:38:33;;;;;;;0.80;0.80;;;22.10;43.00;;;;;;6136748;28;80899;-72
2021/12/02 04:41:33;;;;;;;0.90;0.90;;;22.10;42.80;;;;;;6132432;28;81364;-73
2021/12/02 04:44:34;;;;;;;1.42;1.23;;;22.10;43.00;;;;;;6129989;28;80520;-73
2021/12/02 04:47:34;;;;;;;1.63;0.90;;;22.10;42.80;;;;;;6132859;28;80501;-71
2021/12/02 04:50:35;;;;;;;1.40;1.10;;;22.10;43.30;;;;;;6135189;28;80390;-72
2021/12/02 04:53:35;;;;;;;1.10;1.00;;;22.10;42.70;;;;;;6133297;28;80418;-71
2021/12/02 04:56:37;;;;;;;1.50;1.20;;;22.10;42.70;;;;;;6129927;28;80335;-71
2021/12/02 04:59:38;;;;;;;1.30;1.20;;;22.10;42.30;;;;;;6131514;28;80405;-71
2021/12/02 05:02:40;;;;;;;1.13;1.00;;;22.10;42.00;;;;;;6133833;28;80502;-72
2021/12/02 05:05:41;;;;;;;0.90;0.90;;;22.10;42.00;;;;;;6143515;28;81566;-71
2021/12/02 05:08:41;;;;;;;1.33;1.00;;;22.10;41.70;;;;;;6135443;28;80847;-70
2021/12/02 05:11:42;;;;;;;1.55;1.35;;;22.10;42.00;;;;;;6140498;28;82543;-75
2021/12/02 05:14:42;;;;;;;1.95;1.50;;;22.10;42.30;;;;;;6139336;28;80296;-72
2021/12/02 05:17:43;;;;;;;1.60;1.00;;;22.10;42.50;;;;;;6133711;28;80386;-78
2021/12/02 05:20:43;;;;;;;1.23;1.02;;;22.10;42.50;;;;;;6142198;28;81735;-73
2021/12/02 05:23:44;;;;;;;2.45;1.10;;;22.10;42.60;;;;;;6139298;28;80535;-77
2021/12/02 05:26:45;;;;;;;0.98;0.98;;;22.10;43.90;;;;;;6141802;28;81801;-78
2021/12/02 05:29:45;;;;;;;2.65;0.90;;;22.20;44.60;;;;;;6139955;28;80144;-78
2021/12/02 05:32:46;;;;;;;2.70;0.90;;;22.20;44.40;;;;;;6134502;28;80948;-80
2021/12/02 05:35:47;;;;;;;1.65;1.10;;;22.20;44.30;;;;;;6132417;28;81487;-77
2021/12/02 05:38:51;;;;;;;2.08;1.00;;;22.20;44.50;;;;;;6147979;28;80450;-82
2021/12/02 05:41:53;;;;;;;1.05;0.90;;;22.20;44.70;;;;;;6142232;28;86265;-73
2021/12/02 05:44:54;;;;;;;2.15;1.42;;;22.20;44.80;;;;;;6137834;28;83126;-77
2021/12/02 05:47:54;;;;;;;1.00;1.00;;;22.30;44.80;;;;;;6145140;28;80505;-77
2021/12/02 05:50:55;;;;;;;2.90;1.88;;;22.30;45.20;;;;;;6152019;28;80595;-80
2021/12/02 05:53:55;;;;;;;1.15;0.90;;;22.30;44.70;;;;;;6159089;28;80265;-80
2021/12/02 05:56:56;;;;;;;9.55;3.97;;;22.30;44.70;;;;;;6160632;28;79613;-79
2021/12/02 05:59:57;;;;;;;123.70;53.75;;;22.30;44.70;;;;;;6154457;28;80466;-79
2021/12/02 06:02:57;;;;;;;368.98;165.23;;;22.30;44.80;;;;;;6147305;28;84024;-78
2021/12/02 06:05:58;;;;;;;283.52;128.40;;;22.30;44.80;;;;;;6126959;28;86734;-77
2021/12/02 06:08:58;;;;;;;242.45;111.28;;;22.30;45.00;;;;;;6128504;28;86113;-77
2021/12/02 06:11:59;;;;;;;249.43;110.75;;;22.30;45.00;;;;;;6127260;28;85767;-79
2021/12/02 06:14:59;;;;;;;330.13;150.63;;;22.30;45.30;;;;;;6132634;28;85754;-76
2021/12/02 06:18:00;;;;;;;315.52;148.23;;;22.30;45.90;;;;;;6132372;28;85661;-83
2021/12/02 06:21:02;;;;;;;256.40;121.50;;;22.40;45.50;;;;;;6127521;28;85596;-77
2021/12/02 06:24:05;;;;;;;188.20;85.32;;;22.30;46.30;;;;;;6130319;28;85795;-79
2021/12/02 06:27:05;;;;;;;159.88;74.43;;;22.20;47.50;;;;;;6134133;28;85354;-78
2021/12/02 06:30:06;;;;;;;132.57;61.15;;;22.20;49.10;;;;;;6133370;28;83202;-72
2021/12/02 06:33:06;;;;;;;106.18;50.35;;;22.10;50.00;;;;;;6124219;28;84838;-76
2021/12/02 06:36:07;;;;;;;92.85;45.30;;;22.10;50.80;;;;;;6131312;28;84244;-79
2021/12/02 06:39:08;;;;;;;89.63;41.17;;;22.00;51.90;;;;;;6133049;28;84124;-75
2021/12/02 06:42:08;;;;;;;70.60;33.88;;;22.00;52.10;;;;;;6126473;28;84544;-79
2021/12/02 06:45:09;;;;;;;63.40;31.17;;;21.90;52.60;;;;;;6122227;28;84505;-76
2021/12/02 06:48:09;;;;;;;58.38;29.55;;;21.90;53.40;;;;;;6121800;28;82902;-72
2021/12/02 06:51:13;;;;;;;53.72;25.85;;;21.90;53.60;;;;;;6134146;28;83228;-78
2021/12/02 06:54:13;;;;;;;34.75;18.20;;;22.00;53.70;;;;;;6133504;28;83332;-76
2021/12/02 06:57:15;;;;;;;36.45;17.98;;;22.00;53.70;;;;;;6130200;28;83088;-77
2021/12/02 07:00:16;;;;;;;36.70;17.67;;;22.00;53.90;;;;;;6122150;28;82707;-76
2021/12/02 07:03:17;;;;;;;30.88;14.10;;;22.10;53.60;;;;;;6131115;28;85972;-75
2021/12/02 07:06:17;;;;;;;31.08;14.20;;;22.10;53.50;;;;;;6131457;28;83089;-77
2021/12/02 07:09:18;;;;;;;21.13;11.95;;;22.10;53.60;;;;;;6133504;28;83290;-77
2021/12/02 07:12:28;;;;;;;22.77;10.77;;;22.10;53.30;;;;;;6133952;28;84296;-76
2021/12/02 07:15:34;;;;;;;18.85;9.60;;;22.10;53.20;;;;;;6124263;28;86975;-70
2021/12/02 07:18:38;;;;;;;20.20;9.60;;;22.20;53.00;;;;;;6125642;28;83393;-69
2021/12/02 07:21:39;;;;;;;17.25;8.02;;;22.20;53.60;;;;;;6126288;28;80476;-73
2021/12/02 07:24:40;;;;;;;20.85;8.85;;;22.30;53.50;;;;;;6132985;28;80585;-74
2021/12/02 07:27:42;;;;;;;15.32;7.65;;;22.40;53.10;;;;;;6134158;28;81465;-72
2021/12/02 07:30:42;;;;;;;18.75;9.57;;;22.50;52.80;;;;;;6135056;28;80498;-69
2021/12/02 07:33:47;;;;;;;17.23;8.40;;;22.50;52.70;;;;;;6136706;28;80439;-73
2021/12/02 07:36:48;;;;;;;15.40;8.05;;;22.50;51.50;;;;;;6140045;28;81132;-73
2021/12/02 07:39:49;;;;;;;19.75;8.25;;;22.60;51.70;;;;;;6135996;28;80477;-72
2021/12/02 07:42:51;;;;;;;24.48;9.63;;;22.60;51.60;;;;;;6122294;28;80734;-70
2021/12/02 07:45:52;;;;;;;21.10;9.20;;;22.60;51.50;;;;;;6126991;28;80617;-71
2021/12/02 07:48:54;;;;;;;17.13;8.88;;;22.60;51.40;;;;;;6134494;28;83401;-73
2021/12/02 07:51:56;;;;;;;13.63;7.38;;;22.60;51.10;;;;;;6135797;28;80576;-71
2021/12/02 07:54:57;;;;;;;14.73;7.15;;;22.60;51.70;;;;;;6145239;28;80838;-77
2021/12/02 07:57:57;;;;;;;14.05;6.95;;;22.60;51.00;;;;;;6141203;28;81628;-75
2021/12/02 08:00:58;;;;;;;13.75;6.28;;;22.60;50.80;;;;;;6130539;28;80653;-74
2021/12/02 08:03:58;;;;;;;11.18;5.43;;;22.60;50.60;;;;;;6124670;28;80928;-74
2021/12/02 08:06:59;;;;;;;23.85;5.75;;;22.60;50.80;;;;;;6131319;28;80503;-76
2021/12/02 08:10:01;;;;;;;16.17;4.93;;;22.60;50.70;;;;;;6147597;28;80424;-71
2021/12/02 08:13:03;;;;;;;9.45;4.50;;;22.60;50.50;;;;;;6141640;28;80287;-75
2021/12/02 08:16:04;;;;;;;12.02;5.13;;;22.60;50.40;;;;;;6153185;28;80410;-75
2021/12/02 08:19:05;;;;;;;9.82;5.28;;;22.60;50.10;;;;;;6142263;28;80689;-75
2021/12/02 08:22:06;;;;;;;11.30;4.47;;;22.60;50.50;;;;;;6134148;28;80640;-75
2021/12/02 08:25:06;;;;;;;14.82;4.60;;;22.60;50.70;;;;;;6135522;28;80377;-79
2021/12/02 08:28:07;;;;;;;19.65;4.18;;;22.70;50.60;;;;;;6138220;28;80770;-78
2021/12/02 08:31:07;;;;;;;9.98;3.72;;;22.70;50.10;;;;;;6133591;28;80405;-78
2021/12/02 08:34:08;;;;;;;9.70;3.75;;;22.80;50.40;;;;;;6136642;28;81407;-68
2021/12/02 08:37:10;;;;;;;6.90;2.97;;;22.80;49.90;;;;;;6134814;28;80691;-69
2021/12/02 08:40:10;;;;;;;6.07;2.95;;;22.90;49.50;;;;;;6135101;28;82243;-76
2021/12/02 08:43:11;;;;;;;5.78;3.60;;;22.90;49.60;;;;;;6133664;28;81182;-70
2021/12/02 08:46:11;;;;;;;5.20;2.70;;;22.90;49.40;;;;;;6128160;28;81936;-76
2021/12/02 08:49:12;;;;;;;5.25;2.50;;;22.90;49.70;;;;;;6136750;28;80542;-77
2021/12/02 08:52:12;;;;;;;4.20;2.95;;;22.90;49.80;;;;;;6138167;28;81838;-71
2021/12/02 08:55:13;;;;;;;3.88;2.50;;;22.90;49.90;;;;;;6137621;28;80493;-73
2021/12/02 08:58:14;;;;;;;7.00;2.38;;;22.90;49.70;;;;;;6126062;28;81878;-72
2021/12/02 09:01:14;;;;;;;4.35;2.05;;;22.90;50.00;;;;;;6131350;28;80675;-72
2021/12/02 09:04:15;;;;;;;6.00;2.97;;;22.90;49.70;;;;;;6127221;28;80667;-73
2021/12/02 09:07:15;;;;;;;7.32;2.97;;;22.80;49.90;;;;;;6113917;28;81707;-73
2021/12/02 09:10:16;;;;;;;3.72;2.25;;;22.90;50.30;;;;;;6148515;28;80779;-74
2021/12/02 09:13:16;;;;;;;3.28;2.33;;;22.80;50.40;;;;;;6132636;28;81580;-76
2021/12/02 09:16:18;;;;;;;3.53;2.33;;;22.90;50.70;;;;;;6135518;28;81985;-76
2021/12/02 09:19:19;;;;;;;2.85;1.73;;;22.80;50.90;;;;;;6128942;28;81115;-76
2021/12/02 09:22:19;;;;;;;3.40;2.10;;;22.80;50.90;;;;;;6136690;28;81997;-75
2021/12/02 09:25:20;;;;;;;3.10;1.73;;;22.90;51.10;;;;;;6141016;28;80713;-74
2021/12/02 09:28:20;;;;;;;6.53;1.92;;;22.90;51.10;;;;;;6127170;28;81524;-74
2021/12/02 09:31:21;;;;;;;2.20;1.88;;;22.90;51.30;;;;;;6140161;28;80825;-73
2021/12/02 09:34:21;;;;;;;3.05;1.83;;;22.90;51.50;;;;;;6133093;28;80729;-74
2021/12/02 09:37:22;;;;;;;6.30;1.85;;;22.90;51.60;;;;;;6134794;28;80458;-73
2021/12/02 09:40:22;;;;;;;3.85;2.10;;;22.90;51.90;;;;;;6133205;28;82145;-75
2021/12/02 09:43:23;;;;;;;2.50;1.65;;;23.00;52.00;;;;;;6132968;28;80557;-76
2021/12/02 09:46:24;;;;;;;2.88;1.83;;;23.00;52.10;;;;;;6131486;28;81588;-74
2021/12/02 09:49:24;;;;;;;2.85;1.90;;;23.00;52.20;;;;;;6130740;28;80874;-75
2021/12/02 09:52:36;;;;;;;3.28;1.80;;;23.10;52.30;;;;;;6134400;28;80770;-74
2021/12/02 09:58:37;;;;;;;3.08;1.90;;;23.10;52.80;;;;;;6133462;28;81604;-71
2021/12/02 10:01:44;;;;;;;2.15;1.90;;;23.10;52.80;;;;;;6130415;28;80368;-70
2021/12/02 10:07:48;;;;;;;2.72;1.88;;;23.10;53.60;;;;;;6138232;28;80828;-74
2021/12/02 10:10:52;;;;;;;3.10;2.03;;;23.10;54.50;;;;;;6134272;28;80798;-72
2021/12/02 10:14:00;;;;;;;5.45;2.00;;;23.10;54.70;;;;;;6135886;28;81434;-74
2021/12/02 10:17:00;;;;;;;6.85;1.80;;;23.10;55.00;;;;;;6124232;28;80135;-73
2021/12/02 10:20:11;;;;;;;3.20;1.60;;;23.10;56.30;;;;;;6137425;28;80613;-73
2021/12/02 10:23:15;;;;;;;2.97;1.60;;;23.10;56.70;;;;;;6135025;28;80328;-73
2021/12/02 10:26:18;;;;;;;2.30;1.80;;;23.20;56.60;;;;;;6138785;28;85977;-71
2021/12/02 10:29:19;;;;;;;1.70;1.38;;;23.20;56.40;;;;;;6147711;28;81276;-72
2021/12/02 10:32:20;;;;;;;2.67;1.98;;;23.20;56.00;;;;;;6141195;28;80442;-74
2021/12/02 10:35:24;;;;;;;3.70;2.03;;;23.20;55.50;;;;;;6148948;28;80495;-74
2021/12/02 10:38:25;;;;;;;11.50;6.68;;;23.30;55.30;;;;;;6133447;28;80562;-72
2021/12/02 10:41:25;;;;;;;41.45;20.05;;;23.20;54.90;;;;;;6135660;28;80452;-74
2021/12/02 10:44:34;;;;;;;62.08;33.70;;;23.30;54.80;;;;;;6122832;28;84097;-76
2021/12/02 10:47:35;;;;;;;68.45;35.47;;;23.30;55.00;;;;;;6124005;28;83930;-70
2021/12/02 10:50:35;;;;;;;78.53;38.75;;;23.30;54.90;;;;;;6131983;28;84423;-72
2021/12/02 10:53:36;;;;;;;72.97;38.38;;;23.20;55.10;;;;;;6129378;28;83602;-71
2021/12/02 10:56:38;;;;;;;83.35;43.50;;;23.20;54.80;;;;;;6128324;28;84258;-77
2021/12/02 10:59:40;;;;;;;71.50;39.55;;;23.20;54.70;;;;;;6126428;28;83552;-76
2021/12/02 11:02:43;;;;;;;77.18;38.03;;;23.20;55.00;;;;;;6134476;28;83175;-76
2021/12/02 11:05:44;;;;;;;77.20;38.53;;;23.20;55.00;;;;;;6129341;28;83152;-76
2021/12/02 11:08:44;;;;;;;68.63;36.30;;;23.20;54.30;;;;;;6138543;28;82713;-75
2021/12/02 11:11:45;;;;;;;62.83;32.83;;;23.20;54.30;;;;;;6138388;28;83230;-75
2021/12/02 11:14:46;;;;;;;63.95;32.40;;;23.30;53.60;;;;;;6132486;28;84546;-74
2021/12/02 11:17:48;;;;;;;67.40;33.40;;;23.20;53.80;;;;;;6130195;28;83474;-75
2021/12/02 11:20:50;;;;;;;69.10;35.45;;;23.20;54.20;;;;;;6130235;28;82926;-74
2021/12/02 11:23:51;;;;;;;69.13;35.90;;;23.10;53.60;;;;;;6122356;28;83099;-73
2021/12/02 11:26:51;;;;;;;74.90;35.08;;;23.10;54.10;;;;;;6126404;28;83886;-74
2021/12/02 11:29:52;;;;;;;64.57;34.00;;;23.10;54.00;;;;;;6135024;28;84217;-72
2021/12/02 11:32:52;;;;;;;64.07;33.45;;;23.10;54.10;;;;;;6127166;28;83175;-73
2021/12/02 11:35:53;;;;;;;59.97;30.88;;;23.10;54.00;;;;;;6138963;28;83742;-74
2021/12/02 11:38:55;;;;;;;60.47;30.17;;;23.10;54.00;;;;;;6131256;28;83955;-73
2021/12/02 11:41:56;;;;;;;49.22;27.23;;;23.10;54.10;;;;;;6133179;28;83592;-76
2021/12/02 11:44:57;;;;;;;60.63;27.73;;;23.10;54.20;;;;;;6136428;28;83208;-73
2021/12/02 11:47:57;;;;;;;49.78;25.70;;;23.00;53.80;;;;;;6136456;28;85459;-74
2021/12/02 11:50:58;;;;;;;50.03;26.55;;;23.00;54.10;;;;;;6137304;28;83259;-70
2021/12/02 11:53:58;;;;;;;47.78;23.33;;;23.00;54.00;;;;;;6135107;28;83281;-69
2021/12/02 11:56:59;;;;;;;44.05;23.80;;;23.00;54.00;;;;;;6125472;28;83242;-70
2021/12/02 12:00:02;;;;;;;40.92;20.83;;;23.00;53.90;;;;;;6134058;28;83318;-68
2021/12/02 12:03:12;;;;;;;38.35;19.77;;;23.00;53.90;;;;;;6127737;28;82973;-68
2021/12/02 12:06:13;;;;;;;33.35;17.83;;;23.00;53.70;;;;;;6128426;28;83528;-67
2021/12/02 12:09:13;;;;;;;34.35;19.02;;;23.00;54.00;;;;;;6130133;28;83685;-68
2021/12/02 12:12:14;;;;;;;28.58;15.07;;;23.00;53.50;;;;;;6120137;28;84991;-69
2021/12/02 12:15:14;;;;;;;25.38;12.88;;;22.90;53.20;;;;;;6126336;28;83221;-73
2021/12/02 12:18:15;;;;;;;24.45;12.80;;;22.90;52.60;;;;;;6129407;28;83342;-69
2021/12/02 12:21:15;;;;;;;22.33;12.57;;;22.90;53.50;;;;;;6127802;28;83815;-69
2021/12/02 12:24:17;;;;;;;21.65;10.68;;;22.90;53.20;;;;;;6125305;28;83336;-71
2021/12/02 12:27:18;;;;;;;23.83;11.35;;;22.90;53.00;;;;;;6128199;28;84375;-70
2021/12/02 12:30:23;;;;;;;21.77;11.52;;;22.90;52.60;;;;;;6134739;28;83538;-73
2021/12/02 12:33:24;;;;;;;36.83;14.30;;;22.90;52.70;;;;;;6126521;28;84230;-71
2021/12/02 12:36:24;;;;;;;32.10;14.60;;;22.90;53.40;;;;;;6129344;28;83231;-72
2021/12/02 12:39:25;;;;;;;32.58;13.60;;;23.00;52.90;;;;;;6124035;28;83179;-74
2021/12/02 12:42:25;;;;;;;25.02;12.45;;;23.00;53.10;;;;;;6136719;28;84120;-74
2021/12/02 12:45:26;;;;;;;24.85;11.27;;;23.00;52.60;;;;;;6139343;28;82906;-71
2021/12/02 12:48:28;;;;;;;22.40;10.90;;;23.00;52.90;;;;;;6132698;28;87469;-72
2021/12/02 12:51:29;;;;;;;27.10;11.23;;;22.90;52.40;;;;;;6134316;28;83132;-76
2021/12/02 12:54:29;;;;;;;24.23;9.73;;;22.90;52.80;;;;;;6117499;28;83162;-70
2021/12/02 12:57:30;;;;;;;24.13;9.35;;;22.90;52.60;;;;;;6134831;28;82925;-70
2021/12/02 13:00:30;;;;;;;23.95;11.70;;;22.90;52.60;;;;;;6133945;28;80525;-72
2021/12/02 13:03:32;;;;;;;33.83;15.98;;;22.90;52.60;;;;;;6130928;28;82914;-71
2021/12/02 13:06:36;;;;;;;44.67;22.63;;;22.90;52.60;;;;;;6125547;28;83029;-71
2021/12/02 13:09:41;;;;;;;45.95;24.10;;;22.90;52.60;;;;;;6125652;28;83191;-72
2021/12/02 13:12:42;;;;;;;50.38;26.25;;;22.90;52.50;;;;;;6123827;28;83619;-70
2021/12/02 13:15:42;;;;;;;45.17;24.65;;;22.90;52.60;;;;;;6131678;28;82960;-73
2021/12/02 13:18:43;;;;;;;51.35;26.10;;;22.80;52.40;;;;;;6126877;28;83240;-72
2021/12/02 13:21:45;;;;;;;51.67;26.88;;;22.80;52.60;;;;;;6129984;28;84482;-72
2021/12/02 13:24:46;;;;;;;45.50;23.50;;;22.80;52.30;;;;;;6131597;28;83153;-72
2021/12/02 13:27:47;;;;;;;37.38;19.30;;;22.80;52.50;;;;;;6126861;28;84159;-71
2021/12/02 13:30:47;;;;;;;35.97;18.83;;;22.80;52.40;;;;;;6127944;28;84781;-72
2021/12/02 13:33:50;;;;;;;29.15;15.25;;;22.80;52.20;;;;;;6136166;28;83294;-72
2021/12/02 13:36:51;;;;;;;23.65;12.05;;;22.80;52.40;;;;;;6135660;28;82908;-77
2021/12/02 13:39:52;;;;;;;18.10;10.18;;;22.80;52.30;;;;;;6147010;28;83159;-76
2021/12/02 13:42:53;;;;;;;19.25;9.52;;;22.80;52.70;;;;;;6132937;28;86038;-73
2021/12/02 13:45:53;;;;;;;16.50;8.30;;;22.80;52.80;;;;;;6131998;28;83230;-73
2021/12/02 13:48:55;;;;;;;14.85;7.82;;;22.80;52.70;;;;;;6133139;28;80145;-75
2021/12/02 13:55:16;;;;;;;15.73;7.28;;;22.80;52.50;;;;;;6139925;28;80224;-79
2021/12/02 13:58:27;;;;;;;13.52;6.82;;;22.80;52.40;;;;;;6151194;28;80705;-74
2021/12/02 14:01:27;;;;;;;11.48;5.35;;;22.80;52.50;;;;;;6136822;28;81913;-74
2021/12/02 14:04:28;;;;;;;10.73;5.35;;;22.80;52.60;;;;;;6128388;28;81633;-78
2021/12/02 14:07:28;;;;;;;12.32;5.10;;;22.80;52.50;;;;;;6127513;28;80440;-76
2021/12/02 14:10:30;;;;;;;11.00;4.75;;;22.80;52.60;;;;;;6121755;28;80494;-75
2021/12/02 14:13:31;;;;;;;8.00;4.82;;;22.80;52.70;;;;;;6144558;28;82743;-77
2021/12/02 14:16:32;;;;;;;8.48;4.47;;;22.80;52.30;;;;;;6139419;28;80695;-75
2021/12/02 14:19:32;;;;;;;8.52;4.97;;;22.80;52.80;;;;;;6137888;28;80489;-75
2021/12/02 14:22:33;;;;;;;9.57;4.25;;;22.90;52.40;;;;;;6130455;28;80627;-75
2021/12/02 14:25:34;;;;;;;17.80;4.85;;;22.90;52.80;;;;;;6132536;28;81620;-74
2021/12/02 14:28:34;;;;;;;6.70;4.07;;;22.90;52.80;;;;;;6128188;28;83829;-73
2021/12/02 14:31:36;;;;;;;7.97;3.85;;;22.90;52.30;;;;;;6129940;28;82464;-74
2021/12/02 14:34:36;;;;;;;5.50;3.78;;;22.90;51.90;;;;;;6131475;28;81055;-75
2021/12/02 14:37:37;;;;;;;4.50;3.22;;;22.90;52.00;;;;;;6133191;28;82725;-78
2021/12/02 14:40:42;;;;;;;4.38;3.13;;;23.00;52.20;;;;;;6134546;28;81414;-73
2021/12/02 14:43:43;;;;;;;7.93;3.30;;;22.90;52.00;;;;;;6140948;28;80709;-75
2021/12/02 14:46:44;;;;;;;6.60;3.40;;;23.00;51.80;;;;;;6138730;28;80369;-74
2021/12/02 14:49:46;;;;;;;6.85;3.50;;;23.00;52.00;;;;;;6131464;28;80374;-76
2021/12/02 14:52:50;;;;;;;5.07;3.28;;;23.00;51.90;;;;;;6134786;28;80356;-74
2021/12/02 14:55:50;;;;;;;6.10;2.88;;;23.00;51.70;;;;;;6134788;28;83391;-71
2021/12/02 14:58:51;;;;;;;3.65;2.67;;;23.10;51.90;;;;;;6133874;28;80340;-71
2021/12/02 15:01:51;;;;;;;8.82;3.10;;;23.10;51.70;;;;;;6155488;28;81160;-71
2021/12/02 15:04:52;;;;;;;5.07;2.95;;;23.10;51.80;;;;;;6144768;28;82468;-73
2021/12/02 15:07:53;;;;;;;6.00;2.92;;;23.10;52.40;;;;;;6144567;28;80866;-73
2021/12/02 15:10:54;;;;;;;4.00;2.50;;;23.10;51.70;;;;;;6134181;28;81477;-75
2021/12/02 15:13:54;;;;;;;3.35;2.33;;;23.10;51.60;;;;;;6133961;28;81886;-77
2021/12/02 15:16:55;;;;;;;3.72;2.60;;;23.10;51.60;;;;;;6137941;28;80850;-77
2021/12/02 15:19:55;;;;;;;5.63;2.90;;;23.10;51.60;;;;;;6132310;28;80958;-69
2021/12/02 15:22:56;;;;;;;3.90;2.30;;;23.10;51.60;;;;;;6129561;28;80570;-74
2021/12/02 15:25:57;;;;;;;4.18;2.50;;;23.10;51.50;;;;;;6128403;28;81432;-78
2021/12/02 15:29:01;;;;;;;7.13;2.53;;;23.10;51.50;;;;;;6131383;28;81522;-77
2021/12/02 15:32:01;;;;;;;3.47;2.42;;;23.10;51.40;;;;;;6135786;28;80442;-73
2021/12/02 15:35:02;;;;;;;4.97;2.38;;;23.10;51.40;;;;;;6134330;28;80400;-72
2021/12/02 15:38:03;;;;;;;3.58;2.25;;;23.00;51.30;;;;;;6135554;28;80599;-74
2021/12/02 15:41:04;;;;;;;4.20;2.50;;;23.00;51.40;;;;;;6133435;28;81364;-73
2021/12/02 15:44:05;;;;;;;4.40;2.50;;;23.00;51.50;;;;;;6130703;28;81111;-74
2021/12/02 15:47:10;;;;;;;3.25;2.28;;;23.10;51.50;;;;;;6133969;28;80576;-73
2021/12/02 15:50:15;;;;;;;5.88;2.10;;;23.10;50.90;;;;;;6148625;28;80836;-72
2021/12/02 15:53:16;;;;;;;3.03;1.93;;;23.10;50.90;;;;;;6122525;28;83020;-74
2021/12/02 15:56:16;;;;;;;2.78;1.90;;;23.10;51.30;;;;;;6129928;28;81795;-74
2021/12/02 15:59:19;;;;;;;3.08;1.90;;;23.10;51.00;;;;;;6133966;28;80812;-75